sensor_id;sensor_type;location;lat;lon;timestamp;P1;durP1;ratioP1;P2;durP2;ratioP2
57113;SDS011;42994;51.606;9.988;2023-08-30T00:00:54;2.35;;;1.85;;
57113;SDS011;42994;51.606;9.988;2023-08-30T00:03:21;2.05;;;1.55;;
57113;SDS011;42994;51.606;9.988;2023-08-30T00:05:48;2.83;;;1.60;;
57113;SDS011;42994;51.606;9.988;2023-08-30T00:08:15;2.72;;;2.08;;
57113;SDS011;42994;51.606;9.988;2023-08-30T00:10:43;2.42;;;1.73;;
57113;SDS011;42994;51.606;9.988;2023-08-30T00:13:11;4.15;;;1.90;;
57113;SDS011;42994;51.606;9.988;2023-08-30T00:15:38;2.17;;;1.98;;
57113;SDS011;42994;51.606;9.988;2023-08-30T00:18:05;4.25;;;1.80;;
57113;SDS011;42994;51.606;9.988;2023-08-30T00:20:32;3.25;;;1.98;;
57113;SDS011;42994;51.606;9.988;2023-08-30T00:22:59;2.08;;;1.80;;
57113;SDS011;42994;51.606;9.988;2023-08-30T00:25:26;2.47;;;1.75;;
57113;SDS011;42994;51.606;9.988;2023-08-30T00:27:52;2.53;;;1.50;;
57113;SDS011;42994;51.606;9.988;2023-08-30T00:30:20;2.85;;;1.55;;
57113;SDS011;42994;51.606;9.988;2023-08-30T00:32:47;3.97;;;1.92;;
57113;SDS011;42994;51.606;9.988;2023-08-30T00:35:14;1.83;;;1.60;;
57113;SDS011;42994;51.606;9.988;2023-08-30T00:37:41;1.67;;;1.55;;
57113;SDS011;42994;51.606;9.988;2023-08-30T00:40:07;2.33;;;1.63;;
57113;SDS011;42994;51.606;9.988;2023-08-30T00:42:36;4.00;;;1.73;;
57113;SDS011;42994;51.606;9.988;2023-08-30T00:45:03;2.20;;;1.80;;
57113;SDS011;42994;51.606;9.988;2023-08-30T00:47:32;2.95;;;1.80;;
57113;SDS011;42994;51.606;9.988;2023-08-30T00:50:00;2.38;;;1.83;;
57113;SDS011;42994;51.606;9.988;2023-08-30T00:52:27;3.22;;;1.60;;
57113;SDS011;42994;51.606;9.988;2023-08-30T00:54:54;3.50;;;1.77;;
57113;SDS011;42994;51.606;9.988;2023-08-30T00:57:21;7.32;;;1.95;;
57113;SDS011;42994;51.606;9.988;2023-08-30T00:59:48;1.67;;;1.52;;
57113;SDS011;42994;51.606;9.988;2023-08-30T01:02:17;3.92;;;2.03;;
57113;SDS011;42994;51.606;9.988;2023-08-30T01:04:46;8.80;;;2.35;;
57113;SDS011;42994;51.606;9.988;2023-08-30T01:07:13;2.00;;;1.70;;
57113;SDS011;42994;51.606;9.988;2023-08-30T01:09:40;4.78;;;1.80;;
57113;SDS011;42994;51.606;9.988;2023-08-30T01:12:08;2.75;;;1.85;;
57113;SDS011;42994;51.606;9.988;2023-08-30T01:14:39;3.92;;;1.80;;
57113;SDS011;42994;51.606;9.988;2023-08-30T01:17:10;3.67;;;2.38;;
57113;SDS011;42994;51.606;9.988;2023-08-30T01:19:46;3.53;;;2.10;;
57113;SDS011;42994;51.606;9.988;2023-08-30T01:22:17;2.35;;;1.65;;
57113;SDS011;42994;51.606;9.988;2023-08-30T01:24:58;2.25;;;1.98;;
57113;SDS011;42994;51.606;9.988;2023-08-30T01:27:36;2.35;;;2.10;;
57113;SDS011;42994;51.606;9.988;2023-08-30T01:30:05;4.10;;;2.50;;
57113;SDS011;42994;51.606;9.988;2023-08-30T01:32:34;3.55;;;1.95;;
57113;SDS011;42994;51.606;9.988;2023-08-30T01:35:03;4.00;;;2.47;;
57113;SDS011;42994;51.606;9.988;2023-08-30T01:37:31;3.05;;;2.13;;
57113;SDS011;42994;51.606;9.988;2023-08-30T01:39:58;4.75;;;1.80;;
57113;SDS011;42994;51.606;9.988;2023-08-30T01:42:29;2.30;;;2.08;;
57113;SDS011;42994;51.606;9.988;2023-08-30T01:44:57;6.72;;;2.45;;
57113;SDS011;42994;51.606;9.988;2023-08-30T01:47:27;4.47;;;2.92;;
57113;SDS011;42994;51.606;9.988;2023-08-30T01:49:54;3.10;;;2.40;;
57113;SDS011;42994;51.606;9.988;2023-08-30T01:52:23;4.25;;;2.33;;
57113;SDS011;42994;51.606;9.988;2023-08-30T01:54:50;7.00;;;3.17;;
57113;SDS011;42994;51.606;9.988;2023-08-30T01:57:17;5.68;;;2.42;;
57113;SDS011;42994;51.606;9.988;2023-08-30T01:59:44;2.38;;;1.92;;
57113;SDS011;42994;51.606;9.988;2023-08-30T02:02:13;3.47;;;2.67;;
57113;SDS011;42994;51.606;9.988;2023-08-30T02:04:39;3.55;;;2.50;;
57113;SDS011;42994;51.606;9.988;2023-08-30T02:07:08;5.35;;;2.60;;
57113;SDS011;42994;51.606;9.988;2023-08-30T02:09:39;3.38;;;2.50;;
57113;SDS011;42994;51.606;9.988;2023-08-30T02:12:10;4.20;;;3.00;;
57113;SDS011;42994;51.606;9.988;2023-08-30T02:14:40;4.90;;;3.42;;
57113;SDS011;42994;51.606;9.988;2023-08-30T02:17:12;5.10;;;3.00;;
57113;SDS011;42994;51.606;9.988;2023-08-30T02:19:41;6.18;;;4.05;;
57113;SDS011;42994;51.606;9.988;2023-08-30T02:22:08;5.05;;;3.40;;
57113;SDS011;42994;51.606;9.988;2023-08-30T02:24:35;7.65;;;3.60;;
57113;SDS011;42994;51.606;9.988;2023-08-30T02:27:02;8.35;;;3.40;;
57113;SDS011;42994;51.606;9.988;2023-08-30T02:29:29;4.93;;;3.60;;
57113;SDS011;42994;51.606;9.988;2023-08-30T02:31:56;6.22;;;3.28;;
57113;SDS011;42994;51.606;9.988;2023-08-30T02:34:23;3.95;;;2.95;;
57113;SDS011;42994;51.606;9.988;2023-08-30T02:36:51;4.65;;;3.15;;
57113;SDS011;42994;51.606;9.988;2023-08-30T02:39:18;7.32;;;3.03;;
57113;SDS011;42994;51.606;9.988;2023-08-30T02:41:44;4.10;;;3.17;;
57113;SDS011;42994;51.606;9.988;2023-08-30T02:44:11;3.80;;;3.13;;
57113;SDS011;42994;51.606;9.988;2023-08-30T02:46:38;4.40;;;2.85;;
57113;SDS011;42994;51.606;9.988;2023-08-30T02:49:05;2.88;;;2.47;;
57113;SDS011;42994;51.606;9.988;2023-08-30T02:51:33;4.18;;;2.80;;
57113;SDS011;42994;51.606;9.988;2023-08-30T02:54:00;4.45;;;3.22;;
57113;SDS011;42994;51.606;9.988;2023-08-30T02:56:26;4.68;;;3.20;;
57113;SDS011;42994;51.606;9.988;2023-08-30T02:58:53;3.67;;;2.95;;
57113;SDS011;42994;51.606;9.988;2023-08-30T03:01:19;3.83;;;2.70;;
57113;SDS011;42994;51.606;9.988;2023-08-30T03:03:48;4.15;;;3.28;;
57113;SDS011;42994;51.606;9.988;2023-08-30T03:06:16;5.43;;;3.50;;
57113;SDS011;42994;51.606;9.988;2023-08-30T03:08:44;3.88;;;2.60;;
57113;SDS011;42994;51.606;9.988;2023-08-30T03:11:11;4.10;;;2.80;;
57113;SDS011;42994;51.606;9.988;2023-08-30T03:13:45;6.50;;;2.80;;
57113;SDS011;42994;51.606;9.988;2023-08-30T03:16:12;4.28;;;2.85;;
57113;SDS011;42994;51.606;9.988;2023-08-30T03:18:39;4.85;;;2.63;;
57113;SDS011;42994;51.606;9.988;2023-08-30T03:21:06;3.22;;;2.90;;
57113;SDS011;42994;51.606;9.988;2023-08-30T03:23:33;3.75;;;2.90;;
57113;SDS011;42994;51.606;9.988;2023-08-30T03:26:08;2.85;;;2.55;;
57113;SDS011;42994;51.606;9.988;2023-08-30T03:28:35;10.32;;;4.80;;
57113;SDS011;42994;51.606;9.988;2023-08-30T03:31:02;4.97;;;3.25;;
57113;SDS011;42994;51.606;9.988;2023-08-30T03:33:28;3.65;;;3.30;;
57113;SDS011;42994;51.606;9.988;2023-08-30T03:35:57;8.23;;;4.25;;
57113;SDS011;42994;51.606;9.988;2023-08-30T03:38:24;6.10;;;3.33;;
57113;SDS011;42994;51.606;9.988;2023-08-30T03:40:52;4.82;;;3.17;;
57113;SDS011;42994;51.606;9.988;2023-08-30T03:43:21;4.57;;;3.38;;
57113;SDS011;42994;51.606;9.988;2023-08-30T03:45:48;6.68;;;3.33;;
57113;SDS011;42994;51.606;9.988;2023-08-30T03:48:14;4.05;;;3.58;;
57113;SDS011;42994;51.606;9.988;2023-08-30T03:50:41;5.07;;;3.30;;
57113;SDS011;42994;51.606;9.988;2023-08-30T03:53:07;6.22;;;3.85;;
57113;SDS011;42994;51.606;9.988;2023-08-30T03:55:34;4.25;;;3.08;;
57113;SDS011;42994;51.606;9.988;2023-08-30T03:58:01;4.45;;;2.95;;
57113;SDS011;42994;51.606;9.988;2023-08-30T04:00:29;3.97;;;3.05;;
57113;SDS011;42994;51.606;9.988;2023-08-30T04:02:56;9.60;;;3.80;;
57113;SDS011;42994;51.606;9.988;2023-08-30T04:05:23;6.10;;;4.03;;
57113;SDS011;42994;51.606;9.988;2023-08-30T04:07:49;3.97;;;3.42;;
57113;SDS011;42994;51.606;9.988;2023-08-30T04:10:16;4.90;;;3.08;;
57113;SDS011;42994;51.606;9.988;2023-08-30T04:12:43;4.60;;;3.45;;
57113;SDS011;42994;51.606;9.988;2023-08-30T04:15:09;3.83;;;3.08;;
57113;SDS011;42994;51.606;9.988;2023-08-30T04:17:40;5.28;;;3.67;;
57113;SDS011;42994;51.606;9.988;2023-08-30T04:20:07;4.20;;;3.63;;
57113;SDS011;42994;51.606;9.988;2023-08-30T04:22:35;3.63;;;3.28;;
57113;SDS011;42994;51.606;9.988;2023-08-30T04:25:03;5.47;;;3.58;;
57113;SDS011;42994;51.606;9.988;2023-08-30T04:27:30;4.63;;;3.60;;
57113;SDS011;42994;51.606;9.988;2023-08-30T04:29:57;7.45;;;4.10;;
57113;SDS011;42994;51.606;9.988;2023-08-30T04:32:23;6.63;;;3.92;;
57113;SDS011;42994;51.606;9.988;2023-08-30T04:34:51;4.20;;;3.58;;
57113;SDS011;42994;51.606;9.988;2023-08-30T04:37:18;7.40;;;5.00;;
57113;SDS011;42994;51.606;9.988;2023-08-30T04:39:47;5.10;;;3.78;;
57113;SDS011;42994;51.606;9.988;2023-08-30T04:42:13;8.02;;;4.05;;
57113;SDS011;42994;51.606;9.988;2023-08-30T04:44:40;7.75;;;4.43;;
57113;SDS011;42994;51.606;9.988;2023-08-30T04:47:07;7.97;;;3.67;;
57113;SDS011;42994;51.606;9.988;2023-08-30T04:49:34;5.50;;;4.15;;
57113;SDS011;42994;51.606;9.988;2023-08-30T04:52:03;6.47;;;4.03;;
57113;SDS011;42994;51.606;9.988;2023-08-30T04:54:31;6.30;;;4.13;;
57113;SDS011;42994;51.606;9.988;2023-08-30T04:56:58;8.63;;;4.05;;
57113;SDS011;42994;51.606;9.988;2023-08-30T04:59:25;7.65;;;4.55;;
57113;SDS011;42994;51.606;9.988;2023-08-30T05:01:51;7.57;;;4.40;;
57113;SDS011;42994;51.606;9.988;2023-08-30T05:04:20;10.02;;;4.55;;
57113;SDS011;42994;51.606;9.988;2023-08-30T05:06:47;8.15;;;6.03;;
57113;SDS011;42994;51.606;9.988;2023-08-30T05:09:16;15.15;;;6.43;;
57113;SDS011;42994;51.606;9.988;2023-08-30T05:11:43;11.73;;;5.60;;
57113;SDS011;42994;51.606;9.988;2023-08-30T05:14:10;6.65;;;5.00;;
57113;SDS011;42994;51.606;9.988;2023-08-30T05:16:39;5.53;;;4.40;;
57113;SDS011;42994;51.606;9.988;2023-08-30T05:19:05;5.90;;;4.70;;
57113;SDS011;42994;51.606;9.988;2023-08-30T05:21:32;4.72;;;4.22;;
57113;SDS011;42994;51.606;9.988;2023-08-30T05:23:59;6.10;;;4.68;;
57113;SDS011;42994;51.606;9.988;2023-08-30T05:26:27;6.72;;;4.45;;
57113;SDS011;42994;51.606;9.988;2023-08-30T05:28:54;7.35;;;4.47;;
57113;SDS011;42994;51.606;9.988;2023-08-30T05:31:21;6.35;;;4.82;;
57113;SDS011;42994;51.606;9.988;2023-08-30T05:33:58;7.50;;;4.90;;
57113;SDS011;42994;51.606;9.988;2023-08-30T05:36:44;11.90;;;7.32;;
57113;SDS011;42994;51.606;9.988;2023-08-30T05:39:19;12.80;;;7.82;;
57113;SDS011;42994;51.606;9.988;2023-08-30T05:41:50;11.05;;;7.80;;
57113;SDS011;42994;51.606;9.988;2023-08-30T05:44:17;11.30;;;7.10;;
57113;SDS011;42994;51.606;9.988;2023-08-30T05:46:44;13.40;;;7.53;;
57113;SDS011;42994;51.606;9.988;2023-08-30T05:49:10;12.43;;;7.35;;
57113;SDS011;42994;51.606;9.988;2023-08-30T05:51:37;14.20;;;8.35;;
57113;SDS011;42994;51.606;9.988;2023-08-30T05:54:04;12.30;;;6.57;;
57113;SDS011;42994;51.606;9.988;2023-08-30T05:56:31;9.77;;;7.43;;
57113;SDS011;42994;51.606;9.988;2023-08-30T05:59:00;7.40;;;5.53;;
57113;SDS011;42994;51.606;9.988;2023-08-30T06:01:26;10.60;;;7.78;;
57113;SDS011;42994;51.606;9.988;2023-08-30T06:03:53;15.57;;;8.90;;
57113;SDS011;42994;51.606;9.988;2023-08-30T06:06:20;13.32;;;8.63;;
57113;SDS011;42994;51.606;9.988;2023-08-30T06:08:46;12.07;;;7.60;;
57113;SDS011;42994;51.606;9.988;2023-08-30T06:11:13;9.57;;;8.57;;
57113;SDS011;42994;51.606;9.988;2023-08-30T06:13:40;12.43;;;8.32;;
57113;SDS011;42994;51.606;9.988;2023-08-30T06:16:08;12.65;;;8.52;;
57113;SDS011;42994;51.606;9.988;2023-08-30T06:18:35;11.23;;;6.93;;
57113;SDS011;42994;51.606;9.988;2023-08-30T06:21:02;11.52;;;7.95;;
57113;SDS011;42994;51.606;9.988;2023-08-30T06:23:29;11.63;;;6.95;;
57113;SDS011;42994;51.606;9.988;2023-08-30T06:25:56;13.43;;;8.02;;
57113;SDS011;42994;51.606;9.988;2023-08-30T06:28:23;15.52;;;9.23;;
57113;SDS011;42994;51.606;9.988;2023-08-30T06:30:50;11.77;;;8.10;;
57113;SDS011;42994;51.606;9.988;2023-08-30T06:33:18;11.23;;;6.60;;
57113;SDS011;42994;51.606;9.988;2023-08-30T06:35:47;8.43;;;6.50;;
57113;SDS011;42994;51.606;9.988;2023-08-30T06:38:14;8.30;;;6.75;;
57113;SDS011;42994;51.606;9.988;2023-08-30T06:40:43;13.52;;;7.55;;
57113;SDS011;42994;51.606;9.988;2023-08-30T06:43:10;12.05;;;9.00;;
57113;SDS011;42994;51.606;9.988;2023-08-30T06:45:37;18.33;;;11.10;;
57113;SDS011;42994;51.606;9.988;2023-08-30T06:48:04;17.42;;;10.40;;
57113;SDS011;42994;51.606;9.988;2023-08-30T06:50:33;13.23;;;9.10;;
57113;SDS011;42994;51.606;9.988;2023-08-30T06:52:59;16.45;;;10.98;;
57113;SDS011;42994;51.606;9.988;2023-08-30T06:55:26;13.93;;;8.45;;
57113;SDS011;42994;51.606;9.988;2023-08-30T06:57:53;15.65;;;9.18;;
57113;SDS011;42994;51.606;9.988;2023-08-30T07:00:19;19.08;;;10.90;;
57113;SDS011;42994;51.606;9.988;2023-08-30T07:02:46;19.48;;;9.80;;
57113;SDS011;42994;51.606;9.988;2023-08-30T07:05:13;15.18;;;9.18;;
57113;SDS011;42994;51.606;9.988;2023-08-30T07:07:41;12.18;;;8.50;;
57113;SDS011;42994;51.606;9.988;2023-08-30T07:10:08;15.23;;;8.48;;
57113;SDS011;42994;51.606;9.988;2023-08-30T07:12:35;11.88;;;7.00;;
57113;SDS011;42994;51.606;9.988;2023-08-30T07:15:02;10.35;;;7.05;;
57113;SDS011;42994;51.606;9.988;2023-08-30T07:17:29;12.57;;;6.95;;
57113;SDS011;42994;51.606;9.988;2023-08-30T07:19:56;11.52;;;6.70;;
57113;SDS011;42994;51.606;9.988;2023-08-30T07:22:22;8.55;;;5.65;;
57113;SDS011;42994;51.606;9.988;2023-08-30T07:24:50;13.63;;;7.18;;
57113;SDS011;42994;51.606;9.988;2023-08-30T07:27:17;11.07;;;6.63;;
57113;SDS011;42994;51.606;9.988;2023-08-30T07:29:44;9.88;;;6.55;;
57113;SDS011;42994;51.606;9.988;2023-08-30T07:32:10;10.10;;;5.63;;
57113;SDS011;42994;51.606;9.988;2023-08-30T07:34:37;10.27;;;5.75;;
57113;SDS011;42994;51.606;9.988;2023-08-30T07:37:03;9.65;;;5.82;;
57113;SDS011;42994;51.606;9.988;2023-08-30T07:39:30;9.32;;;5.25;;
57113;SDS011;42994;51.606;9.988;2023-08-30T07:41:58;7.30;;;4.78;;
57113;SDS011;42994;51.606;9.988;2023-08-30T07:44:25;11.70;;;5.50;;
57113;SDS011;42994;51.606;9.988;2023-08-30T07:46:51;8.00;;;5.60;;
57113;SDS011;42994;51.606;9.988;2023-08-30T07:49:18;8.82;;;5.18;;
57113;SDS011;42994;51.606;9.988;2023-08-30T07:51:44;7.07;;;3.95;;
57113;SDS011;42994;51.606;9.988;2023-08-30T07:54:11;4.22;;;3.83;;
57113;SDS011;42994;51.606;9.988;2023-08-30T07:56:38;5.70;;;3.83;;
57113;SDS011;42994;51.606;9.988;2023-08-30T07:59:06;5.97;;;3.47;;
57113;SDS011;42994;51.606;9.988;2023-08-30T08:01:32;5.55;;;3.22;;
57113;SDS011;42994;51.606;9.988;2023-08-30T08:03:59;5.88;;;3.47;;
57113;SDS011;42994;51.606;9.988;2023-08-30T08:06:25;7.15;;;3.47;;
57113;SDS011;42994;51.606;9.988;2023-08-30T08:08:52;7.25;;;3.63;;
57113;SDS011;42994;51.606;9.988;2023-08-30T08:11:19;4.82;;;3.35;;
57113;SDS011;42994;51.606;9.988;2023-08-30T08:13:45;4.38;;;3.58;;
57113;SDS011;42994;51.606;9.988;2023-08-30T08:16:13;5.72;;;3.95;;
57113;SDS011;42994;51.606;9.988;2023-08-30T08:18:40;8.10;;;3.70;;
57113;SDS011;42994;51.606;9.988;2023-08-30T08:21:07;5.25;;;3.75;;
57113;SDS011;42994;51.606;9.988;2023-08-30T08:23:33;8.15;;;3.63;;
57113;SDS011;42994;51.606;9.988;2023-08-30T08:26:00;12.30;;;4.03;;
57113;SDS011;42994;51.606;9.988;2023-08-30T08:28:27;4.32;;;3.88;;
57113;SDS011;42994;51.606;9.988;2023-08-30T08:30:54;6.22;;;4.00;;
57113;SDS011;42994;51.606;9.988;2023-08-30T08:33:22;5.40;;;4.00;;
57113;SDS011;42994;51.606;9.988;2023-08-30T08:35:49;5.30;;;4.05;;
57113;SDS011;42994;51.606;9.988;2023-08-30T08:38:16;4.68;;;3.70;;
57113;SDS011;42994;51.606;9.988;2023-08-30T08:40:42;5.95;;;4.05;;
57113;SDS011;42994;51.606;9.988;2023-08-30T08:43:09;7.32;;;4.28;;
57113;SDS011;42994;51.606;9.988;2023-08-30T08:45:37;5.20;;;4.28;;
57113;SDS011;42994;51.606;9.988;2023-08-30T08:48:04;7.22;;;3.38;;
57113;SDS011;42994;51.606;9.988;2023-08-30T08:50:33;7.53;;;4.70;;
57113;SDS011;42994;51.606;9.988;2023-08-30T08:53:00;3.55;;;3.25;;
57113;SDS011;42994;51.606;9.988;2023-08-30T08:55:28;6.15;;;4.00;;
57113;SDS011;42994;51.606;9.988;2023-08-30T08:57:56;5.43;;;3.83;;
57113;SDS011;42994;51.606;9.988;2023-08-30T09:00:24;5.70;;;4.78;;
57113;SDS011;42994;51.606;9.988;2023-08-30T09:02:52;7.13;;;4.25;;
57113;SDS011;42994;51.606;9.988;2023-08-30T09:05:20;6.47;;;5.72;;
57113;SDS011;42994;51.606;9.988;2023-08-30T09:07:48;9.60;;;5.90;;
57113;SDS011;42994;51.606;9.988;2023-08-30T09:10:19;7.68;;;5.32;;
57113;SDS011;42994;51.606;9.988;2023-08-30T09:12:46;9.73;;;6.75;;
57113;SDS011;42994;51.606;9.988;2023-08-30T09:15:13;9.30;;;6.15;;
57113;SDS011;42994;51.606;9.988;2023-08-30T09:17:40;7.10;;;4.10;;
57113;SDS011;42994;51.606;9.988;2023-08-30T09:20:08;5.07;;;4.60;;
57113;SDS011;42994;51.606;9.988;2023-08-30T09:22:35;7.05;;;4.57;;
57113;SDS011;42994;51.606;9.988;2023-08-30T09:25:04;7.63;;;5.88;;
57113;SDS011;42994;51.606;9.988;2023-08-30T09:27:32;10.25;;;6.75;;
57113;SDS011;42994;51.606;9.988;2023-08-30T09:29:59;7.45;;;6.75;;
57113;SDS011;42994;51.606;9.988;2023-08-30T09:32:26;9.82;;;4.80;;
57113;SDS011;42994;51.606;9.988;2023-08-30T09:34:52;7.05;;;4.88;;
57113;SDS011;42994;51.606;9.988;2023-08-30T09:37:19;6.07;;;5.18;;
57113;SDS011;42994;51.606;9.988;2023-08-30T09:39:48;8.25;;;7.00;;
57113;SDS011;42994;51.606;9.988;2023-08-30T09:42:17;9.10;;;6.90;;
57113;SDS011;42994;51.606;9.988;2023-08-30T09:44:44;9.57;;;5.72;;
57113;SDS011;42994;51.606;9.988;2023-08-30T09:47:12;7.32;;;6.18;;
57113;SDS011;42994;51.606;9.988;2023-08-30T09:49:40;7.13;;;5.53;;
57113;SDS011;42994;51.606;9.988;2023-08-30T09:52:09;12.07;;;9.05;;
57113;SDS011;42994;51.606;9.988;2023-08-30T09:54:36;15.73;;;7.32;;
57113;SDS011;42994;51.606;9.988;2023-08-30T09:57:06;7.60;;;6.18;;
57113;SDS011;42994;51.606;9.988;2023-08-30T09:59:35;7.50;;;6.68;;
57113;SDS011;42994;51.606;9.988;2023-08-30T10:02:03;11.02;;;8.07;;
57113;SDS011;42994;51.606;9.988;2023-08-30T10:04:31;11.52;;;8.73;;
57113;SDS011;42994;51.606;9.988;2023-08-30T10:06:58;10.63;;;8.30;;
57113;SDS011;42994;51.606;9.988;2023-08-30T10:09:25;11.10;;;8.57;;
57113;SDS011;42994;51.606;9.988;2023-08-30T10:11:52;11.18;;;8.55;;
57113;SDS011;42994;51.606;9.988;2023-08-30T10:14:18;11.38;;;7.75;;
57113;SDS011;42994;51.606;9.988;2023-08-30T10:16:47;9.85;;;7.53;;
57113;SDS011;42994;51.606;9.988;2023-08-30T10:19:15;9.80;;;7.53;;
57113;SDS011;42994;51.606;9.988;2023-08-30T10:21:43;12.18;;;7.50;;
57113;SDS011;42994;51.606;9.988;2023-08-30T10:24:11;10.88;;;8.10;;
57113;SDS011;42994;51.606;9.988;2023-08-30T10:26:40;13.23;;;9.60;;
57113;SDS011;42994;51.606;9.988;2023-08-30T10:29:09;10.63;;;9.20;;
57113;SDS011;42994;51.606;9.988;2023-08-30T10:31:37;8.07;;;6.95;;
57113;SDS011;42994;51.606;9.988;2023-08-30T10:34:11;11.65;;;8.20;;
57113;SDS011;42994;51.606;9.988;2023-08-30T10:36:39;11.85;;;8.20;;
57113;SDS011;42994;51.606;9.988;2023-08-30T10:39:10;8.32;;;7.32;;
57113;SDS011;42994;51.606;9.988;2023-08-30T10:41:37;11.45;;;8.48;;
57113;SDS011;42994;51.606;9.988;2023-08-30T10:44:05;11.55;;;8.85;;
57113;SDS011;42994;51.606;9.988;2023-08-30T10:46:32;8.85;;;7.88;;
57113;SDS011;42994;51.606;9.988;2023-08-30T10:49:12;9.85;;;7.68;;
57113;SDS011;42994;51.606;9.988;2023-08-30T10:51:40;10.35;;;9.23;;
57113;SDS011;42994;51.606;9.988;2023-08-30T10:54:12;12.45;;;8.18;;
57113;SDS011;42994;51.606;9.988;2023-08-30T10:56:45;11.85;;;8.50;;
57113;SDS011;42994;51.606;9.988;2023-08-30T10:59:17;10.93;;;8.50;;
57113;SDS011;42994;51.606;9.988;2023-08-30T11:01:45;12.40;;;8.15;;
57113;SDS011;42994;51.606;9.988;2023-08-30T11:04:14;10.82;;;8.48;;
57113;SDS011;42994;51.606;9.988;2023-08-30T11:06:42;9.63;;;7.20;;
57113;SDS011;42994;51.606;9.988;2023-08-30T11:09:09;8.90;;;6.65;;
57113;SDS011;42994;51.606;9.988;2023-08-30T11:11:36;11.02;;;6.55;;
57113;SDS011;42994;51.606;9.988;2023-08-30T11:14:04;9.98;;;7.47;;
57113;SDS011;42994;51.606;9.988;2023-08-30T11:16:31;10.43;;;7.85;;
57113;SDS011;42994;51.606;9.988;2023-08-30T11:18:59;9.35;;;7.10;;
57113;SDS011;42994;51.606;9.988;2023-08-30T11:21:28;6.95;;;6.05;;
57113;SDS011;42994;51.606;9.988;2023-08-30T11:23:55;6.80;;;5.78;;
57113;SDS011;42994;51.606;9.988;2023-08-30T11:26:22;11.02;;;6.68;;
57113;SDS011;42994;51.606;9.988;2023-08-30T11:28:49;10.30;;;5.72;;
57113;SDS011;42994;51.606;9.988;2023-08-30T11:31:18;7.15;;;6.35;;
57113;SDS011;42994;51.606;9.988;2023-08-30T11:33:50;8.05;;;5.95;;
57113;SDS011;42994;51.606;9.988;2023-08-30T11:36:17;8.38;;;6.40;;
57113;SDS011;42994;51.606;9.988;2023-08-30T11:38:46;7.63;;;4.82;;
57113;SDS011;42994;51.606;9.988;2023-08-30T11:41:13;8.93;;;6.15;;
57113;SDS011;42994;51.606;9.988;2023-08-30T11:43:39;7.28;;;5.55;;
57113;SDS011;42994;51.606;9.988;2023-08-30T11:46:07;7.47;;;6.68;;
57113;SDS011;42994;51.606;9.988;2023-08-30T11:48:34;7.50;;;6.50;;
57113;SDS011;42994;51.606;9.988;2023-08-30T11:51:01;6.70;;;6.05;;
57113;SDS011;42994;51.606;9.988;2023-08-30T11:53:28;6.93;;;5.03;;
57113;SDS011;42994;51.606;9.988;2023-08-30T11:55:57;7.97;;;5.60;;
57113;SDS011;42994;51.606;9.988;2023-08-30T11:58:23;6.82;;;6.10;;
57113;SDS011;42994;51.606;9.988;2023-08-30T12:00:50;7.32;;;6.32;;
57113;SDS011;42994;51.606;9.988;2023-08-30T12:03:19;5.75;;;5.25;;
57113;SDS011;42994;51.606;9.988;2023-08-30T12:05:45;7.93;;;5.18;;
57113;SDS011;42994;51.606;9.988;2023-08-30T12:08:19;6.88;;;5.88;;
57113;SDS011;42994;51.606;9.988;2023-08-30T12:10:46;5.82;;;5.32;;
57113;SDS011;42994;51.606;9.988;2023-08-30T12:13:20;5.38;;;4.70;;
57113;SDS011;42994;51.606;9.988;2023-08-30T12:15:48;5.38;;;4.30;;
57113;SDS011;42994;51.606;9.988;2023-08-30T12:18:15;4.97;;;4.38;;
57113;SDS011;42994;51.606;9.988;2023-08-30T12:20:50;6.20;;;4.50;;
57113;SDS011;42994;51.606;9.988;2023-08-30T12:23:22;4.32;;;3.72;;
57113;SDS011;42994;51.606;9.988;2023-08-30T12:25:59;7.13;;;4.25;;
57113;SDS011;42994;51.606;9.988;2023-08-30T12:28:30;6.82;;;4.60;;
57113;SDS011;42994;51.606;9.988;2023-08-30T12:30:59;4.32;;;3.92;;
57113;SDS011;42994;51.606;9.988;2023-08-30T12:33:25;4.35;;;3.75;;
57113;SDS011;42994;51.606;9.988;2023-08-30T12:35:52;4.20;;;3.40;;
57113;SDS011;42994;51.606;9.988;2023-08-30T12:38:18;3.53;;;3.03;;
57113;SDS011;42994;51.606;9.988;2023-08-30T12:40:45;6.32;;;3.60;;
57113;SDS011;42994;51.606;9.988;2023-08-30T12:43:12;3.80;;;3.17;;
57113;SDS011;42994;51.606;9.988;2023-08-30T12:45:41;3.58;;;2.90;;
57113;SDS011;42994;51.606;9.988;2023-08-30T12:48:09;4.70;;;3.67;;
57113;SDS011;42994;51.606;9.988;2023-08-30T12:50:36;5.13;;;3.25;;
57113;SDS011;42994;51.606;9.988;2023-08-30T12:53:04;4.30;;;2.90;;
57113;SDS011;42994;51.606;9.988;2023-08-30T12:55:31;5.05;;;3.20;;
57113;SDS011;42994;51.606;9.988;2023-08-30T12:57:59;3.72;;;3.08;;
57113;SDS011;42994;51.606;9.988;2023-08-30T13:00:26;4.38;;;3.00;;
57113;SDS011;42994;51.606;9.988;2023-08-30T13:02:54;3.33;;;2.63;;
57113;SDS011;42994;51.606;9.988;2023-08-30T13:05:21;4.13;;;2.60;;
57113;SDS011;42994;51.606;9.988;2023-08-30T13:07:48;4.57;;;3.03;;
57113;SDS011;42994;51.606;9.988;2023-08-30T13:10:14;3.90;;;2.95;;
57113;SDS011;42994;51.606;9.988;2023-08-30T13:12:42;3.10;;;2.80;;
57113;SDS011;42994;51.606;9.988;2023-08-30T13:15:09;3.30;;;2.72;;
57113;SDS011;42994;51.606;9.988;2023-08-30T13:17:36;4.38;;;3.28;;
57113;SDS011;42994;51.606;9.988;2023-08-30T13:20:05;6.63;;;3.10;;
57113;SDS011;42994;51.606;9.988;2023-08-30T13:22:32;4.82;;;3.22;;
57113;SDS011;42994;51.606;9.988;2023-08-30T13:24:58;6.60;;;3.92;;
57113;SDS011;42994;51.606;9.988;2023-08-30T13:27:25;4.05;;;2.83;;
57113;SDS011;42994;51.606;9.988;2023-08-30T13:29:52;3.03;;;2.72;;
57113;SDS011;42994;51.606;9.988;2023-08-30T13:32:18;5.35;;;3.00;;
57113;SDS011;42994;51.606;9.988;2023-08-30T13:34:45;5.93;;;2.90;;
57113;SDS011;42994;51.606;9.988;2023-08-30T13:37:13;6.10;;;4.22;;
57113;SDS011;42994;51.606;9.988;2023-08-30T13:39:40;4.55;;;3.17;;
57113;SDS011;42994;51.606;9.988;2023-08-30T13:42:07;4.25;;;3.28;;
57113;SDS011;42994;51.606;9.988;2023-08-30T13:44:34;4.15;;;3.17;;
57113;SDS011;42994;51.606;9.988;2023-08-30T13:47:02;4.40;;;3.70;;
57113;SDS011;42994;51.606;9.988;2023-08-30T13:49:29;6.15;;;3.33;;
57113;SDS011;42994;51.606;9.988;2023-08-30T13:51:56;4.32;;;3.05;;
57113;SDS011;42994;51.606;9.988;2023-08-30T13:54:24;3.58;;;3.28;;
57113;SDS011;42994;51.606;9.988;2023-08-30T13:56:54;3.43;;;3.10;;
57113;SDS011;42994;51.606;9.988;2023-08-30T13:59:22;5.75;;;3.53;;
57113;SDS011;42994;51.606;9.988;2023-08-30T14:01:49;3.97;;;3.25;;
57113;SDS011;42994;51.606;9.988;2023-08-30T14:04:16;4.32;;;3.42;;
57113;SDS011;42994;51.606;9.988;2023-08-30T14:06:42;7.13;;;3.67;;
57113;SDS011;42994;51.606;9.988;2023-08-30T14:09:09;6.18;;;2.70;;
57113;SDS011;42994;51.606;9.988;2023-08-30T14:11:37;4.82;;;2.75;;
57113;SDS011;42994;51.606;9.988;2023-08-30T14:14:04;3.03;;;2.70;;
57113;SDS011;42994;51.606;9.988;2023-08-30T14:16:31;4.50;;;3.05;;
57113;SDS011;42994;51.606;9.988;2023-08-30T14:18:57;4.28;;;2.85;;
57113;SDS011;42994;51.606;9.988;2023-08-30T14:21:25;3.47;;;2.88;;
57113;SDS011;42994;51.606;9.988;2023-08-30T14:23:52;3.05;;;2.75;;
57113;SDS011;42994;51.606;9.988;2023-08-30T14:26:19;5.30;;;3.00;;
57113;SDS011;42994;51.606;9.988;2023-08-30T14:28:47;3.35;;;2.50;;
57113;SDS011;42994;51.606;9.988;2023-08-30T14:31:13;3.90;;;2.92;;
57113;SDS011;42994;51.606;9.988;2023-08-30T14:33:42;6.93;;;2.97;;
57113;SDS011;42994;51.606;9.988;2023-08-30T14:36:10;4.30;;;2.65;;
57113;SDS011;42994;51.606;9.988;2023-08-30T14:38:37;4.53;;;2.83;;
57113;SDS011;42994;51.606;9.988;2023-08-30T14:41:05;5.60;;;3.10;;
57113;SDS011;42994;51.606;9.988;2023-08-30T14:43:32;3.03;;;2.60;;
57113;SDS011;42994;51.606;9.988;2023-08-30T14:46:00;3.67;;;2.95;;
57113;SDS011;42994;51.606;9.988;2023-08-30T14:48:27;3.45;;;2.67;;